createdAt,value
2022-11-25T00:01:05.807Z,6.03
2022-11-25T00:03:32.158Z,5.13
2022-11-25T00:06:07.428Z,6.28
2022-11-25T00:08:33.727Z,4.97
2022-11-25T00:11:03.601Z,5.65
2022-11-25T00:13:30.020Z,5.85
2022-11-25T00:15:56.413Z,5.20
2022-11-25T00:18:22.802Z,6.38
2022-11-25T00:20:49.140Z,5.07
2022-11-25T00:23:15.583Z,4.70
2022-11-25T00:25:41.903Z,5.07
2022-11-25T00:28:08.231Z,5.22
2022-11-25T00:30:34.614Z,5.18
2022-11-25T00:33:00.899Z,5.25
2022-11-25T00:35:27.247Z,5.55
2022-11-25T00:37:53.605Z,5.10
2022-11-25T00:40:20.298Z,4.93
2022-11-25T00:43:05.347Z,5.65
2022-11-25T00:45:31.743Z,5.88
2022-11-25T00:47:58.087Z,5.80
2022-11-25T00:50:24.468Z,5.65
2022-11-25T00:52:50.818Z,5.38
2022-11-25T00:55:17.160Z,6.15
2022-11-25T00:57:43.501Z,5.40
2022-11-25T01:00:11.195Z,5.55
2022-11-25T01:02:37.793Z,5.40
2022-11-25T01:05:04.370Z,5.95
2022-11-25T01:07:30.721Z,5.28
2022-11-25T01:09:57.173Z,5.78
2022-11-25T01:12:23.731Z,4.70
2022-11-25T01:14:50.058Z,5.00
2022-11-25T01:17:19.636Z,4.95
2022-11-25T01:19:45.992Z,4.78
2022-11-25T01:22:12.345Z,4.95
2022-11-25T01:24:39.048Z,5.75
2022-11-25T01:27:05.449Z,5.13
2022-11-25T01:29:31.978Z,5.30
2022-11-25T01:31:58.389Z,4.68
2022-11-25T01:34:25.603Z,5.22
2022-11-25T01:36:51.969Z,5.65
2022-11-25T01:39:19.592Z,5.45
2022-11-25T01:41:46.654Z,5.57
2022-11-25T01:44:14.506Z,4.55
2022-11-25T01:46:59.804Z,5.25
2022-11-25T01:49:36.197Z,5.03
2022-11-25T01:52:06.562Z,5.55
2022-11-25T01:54:38.086Z,5.57
2022-11-25T01:57:12.164Z,5.03
2022-11-25T01:59:41.025Z,5.93
2022-11-25T02:02:07.707Z,4.93
2022-11-25T02:04:35.978Z,5.20
2022-11-25T02:07:09.286Z,5.40
2022-11-25T02:09:37.368Z,4.68
2022-11-25T02:12:04.695Z,4.65
2022-11-25T02:14:31.519Z,4.85
2022-11-25T02:17:00.283Z,4.70
2022-11-25T02:19:32.593Z,5.05
2022-11-25T02:22:02.794Z,4.40
2022-11-25T02:24:43.304Z,5.13
2022-11-25T02:27:09.649Z,4.90
2022-11-25T02:29:36.493Z,5.47
2022-11-25T02:32:02.945Z,4.05
2022-11-25T02:34:29.297Z,4.50
2022-11-25T02:36:56.772Z,4.38
2022-11-25T02:39:23.359Z,5.10
2022-11-25T02:41:51.906Z,4.70
2022-11-25T02:44:18.499Z,4.55
2022-11-25T02:46:45.048Z,4.78
2022-11-25T02:49:11.480Z,5.45
2022-11-25T02:51:38.984Z,4.13
2022-11-25T02:54:05.366Z,5.30
2022-11-25T02:56:32.963Z,4.45
2022-11-25T02:59:02.225Z,4.55
2022-11-25T03:01:29.916Z,4.78
2022-11-25T03:03:56.434Z,5.30
2022-11-25T03:06:22.896Z,4.60
2022-11-25T03:08:49.394Z,5.20
2022-11-25T03:11:15.886Z,4.97
2022-11-25T03:13:42.256Z,4.95
2022-11-25T03:16:11.099Z,5.10
2022-11-25T03:18:37.712Z,4.40
2022-11-25T03:21:04.126Z,4.68
2022-11-25T03:23:30.687Z,4.18
2022-11-25T03:25:57.090Z,4.53
2022-11-25T03:28:23.601Z,4.70
2022-11-25T03:30:50.062Z,5.53
2022-11-25T03:33:16.394Z,4.88
2022-11-25T03:35:42.728Z,4.53
2022-11-25T03:38:09.124Z,4.88
2022-11-25T03:40:35.590Z,4.68
2022-11-25T03:43:01.938Z,4.28
2022-11-25T03:45:28.259Z,4.50
2022-11-25T03:47:57.740Z,4.78
2022-11-25T03:50:24.078Z,4.88
2022-11-25T03:52:50.428Z,5.57
2022-11-25T03:55:16.903Z,4.40
2022-11-25T03:57:46.147Z,4.80
2022-11-25T04:00:13.038Z,4.88
2022-11-25T04:02:39.483Z,4.82
2022-11-25T04:05:06.120Z,5.05
2022-11-25T04:07:32.774Z,4.25
2022-11-25T04:09:59.159Z,4.95
2022-11-25T04:12:44.147Z,4.57
2022-11-25T04:15:10.658Z,4.30
2022-11-25T04:17:37.130Z,4.45
2022-11-25T04:20:04.135Z,5.10
2022-11-25T04:22:30.533Z,4.88
2022-11-25T04:24:58.363Z,4.72
2022-11-25T04:27:24.720Z,4.70
2022-11-25T04:29:51.105Z,4.72
2022-11-25T04:32:17.472Z,4.60
2022-11-25T04:34:43.835Z,4.60
2022-11-25T04:37:10.231Z,4.65
2022-11-25T04:39:36.764Z,4.40
2022-11-25T04:42:21.532Z,3.78
2022-11-25T04:45:01.382Z,3.72
2022-11-25T04:47:34.040Z,3.88
2022-11-25T04:50:02.090Z,3.67
2022-11-25T04:52:28.498Z,3.97
2022-11-25T04:54:54.863Z,4.13
2022-11-25T04:57:21.394Z,5.18
2022-11-25T04:59:47.790Z,3.92
2022-11-25T05:02:15.814Z,4.25
2022-11-25T05:04:43.202Z,3.60
2022-11-25T05:07:09.653Z,3.55
2022-11-25T05:09:36.228Z,3.30
2022-11-25T05:12:02.645Z,3.65
2022-11-25T05:14:28.980Z,3.67
2022-11-25T05:16:55.580Z,3.75
2022-11-25T05:19:24.035Z,3.58
2022-11-25T05:21:50.376Z,3.63
2022-11-25T05:24:16.720Z,3.45
2022-11-25T05:26:43.047Z,3.08
2022-11-25T05:29:09.783Z,3.58
2022-11-25T05:31:36.191Z,3.95
2022-11-25T05:34:03.000Z,2.95
2022-11-25T05:36:29.623Z,3.05
2022-11-25T05:38:56.651Z,2.90
2022-11-25T05:41:23.108Z,2.90
2022-11-25T05:43:49.418Z,2.50
2022-11-25T05:46:15.832Z,2.33
2022-11-25T05:48:42.260Z,2.50
2022-11-25T05:51:09.204Z,3.28
2022-11-25T05:53:36.111Z,3.03
2022-11-25T05:56:03.527Z,2.58
2022-11-25T05:58:30.436Z,3.03
2022-11-25T06:00:59.094Z,2.65
2022-11-25T06:03:28.946Z,2.53
2022-11-25T06:05:57.482Z,2.95
2022-11-25T06:08:23.873Z,2.50
2022-11-25T06:10:50.248Z,2.65
2022-11-25T06:13:16.609Z,2.97
2022-11-25T06:15:44.083Z,2.72
2022-11-25T06:18:15.319Z,2.80
2022-11-25T06:20:41.760Z,2.67
2022-11-25T06:23:09.091Z,2.90
2022-11-25T06:25:36.549Z,2.95
2022-11-25T06:28:18.868Z,2.80
2022-11-25T06:30:45.388Z,2.88
2022-11-25T06:33:11.756Z,3.22
2022-11-25T06:35:38.165Z,2.78
2022-11-25T06:38:04.533Z,3.47
2022-11-25T06:40:30.909Z,3.38
2022-11-25T06:42:57.374Z,3.17
2022-11-25T06:45:26.884Z,2.88
2022-11-25T06:47:53.715Z,3.03
2022-11-25T06:50:20.057Z,3.00
2022-11-25T06:52:46.425Z,3.15
2022-11-25T06:55:12.924Z,2.75
2022-11-25T06:57:39.404Z,3.58
2022-11-25T07:00:06.167Z,3.95
2022-11-25T07:02:41.676Z,3.75
2022-11-25T07:05:10.553Z,3.30
2022-11-25T07:07:37.409Z,3.35
2022-11-25T07:10:04.058Z,3.05
2022-11-25T07:12:30.643Z,3.55
2022-11-25T07:14:56.987Z,3.15
2022-11-25T07:17:23.427Z,3.47
2022-11-25T07:19:49.753Z,3.13
2022-11-25T07:22:16.196Z,3.08
2022-11-25T07:24:42.659Z,3.45
2022-11-25T07:27:09.053Z,3.50
2022-11-25T07:29:57.885Z,3.30
2022-11-25T07:32:22.649Z,3.25
2022-11-25T07:34:50.271Z,3.67
2022-11-25T07:37:17.872Z,3.60
2022-11-25T07:39:44.326Z,3.25
2022-11-25T07:42:10.647Z,4.28
2022-11-25T07:44:36.966Z,3.67
2022-11-25T07:47:03.366Z,3.05
2022-11-25T07:49:29.838Z,3.10
2022-11-25T07:51:57.711Z,3.38
2022-11-25T07:54:24.096Z,3.03
2022-11-25T07:56:50.818Z,2.80
2022-11-25T07:59:21.324Z,2.67
2022-11-25T08:01:51.543Z,3.03
2022-11-25T08:04:20.728Z,3.72
2022-11-25T08:06:48.492Z,3.00
2022-11-25T08:09:19.141Z,2.95
2022-11-25T08:11:46.104Z,3.05
2022-11-25T08:14:15.633Z,2.90
2022-11-25T08:16:42.282Z,2.85
2022-11-25T08:19:11.489Z,3.50
2022-11-25T08:21:38.076Z,3.47
2022-11-25T08:24:05.385Z,3.03
2022-11-25T08:26:34.011Z,2.80
2022-11-25T08:29:00.749Z,3.47
2022-11-25T08:31:31.867Z,3.13
2022-11-25T08:33:58.874Z,3.03
2022-11-25T08:36:26.185Z,3.00
2022-11-25T08:38:53.904Z,3.10
2022-11-25T08:41:22.227Z,3.55
2022-11-25T08:43:48.634Z,3.20
2022-11-25T08:46:16.868Z,3.25
2022-11-25T08:48:43.824Z,3.88
2022-11-25T08:51:11.975Z,3.67
2022-11-25T08:53:39.254Z,4.38
2022-11-25T08:56:06.174Z,3.55
2022-11-25T08:58:33.212Z,4.00
2022-11-25T09:00:59.559Z,3.53
2022-11-25T09:03:25.997Z,3.92
2022-11-25T09:05:52.591Z,3.70
2022-11-25T09:08:19.016Z,3.60
2022-11-25T09:10:45.498Z,4.15
2022-11-25T09:13:11.935Z,3.78
2022-11-25T09:15:39.201Z,4.13
2022-11-25T09:18:08.078Z,3.65
2022-11-25T09:20:35.094Z,4.05
2022-11-25T09:23:02.149Z,3.78
2022-11-25T09:25:29.107Z,3.42
2022-11-25T09:27:55.909Z,4.30
2022-11-25T09:30:22.419Z,4.10
2022-11-25T09:32:49.768Z,3.42
2022-11-25T09:35:16.807Z,4.18
2022-11-25T09:37:43.477Z,4.15
2022-11-25T09:40:18.631Z,3.72
2022-11-25T09:43:12.760Z,3.88
2022-11-25T09:46:06.914Z,4.60
2022-11-25T09:48:40.979Z,3.88
2022-11-25T09:51:14.024Z,4.15
2022-11-25T09:53:52.234Z,4.15
2022-11-25T09:56:37.674Z,4.03
2022-11-25T09:59:07.041Z,3.63
2022-11-25T10:01:35.116Z,4.25
2022-11-25T10:04:04.475Z,4.05
2022-11-25T10:06:55.282Z,4.25
2022-11-25T10:09:26.124Z,4.07
2022-11-25T10:11:54.058Z,3.95
2022-11-25T10:14:29.266Z,3.40
2022-11-25T10:17:01.652Z,3.38
2022-11-25T10:19:28.004Z,3.80
2022-11-25T10:21:54.356Z,4.13
2022-11-25T10:24:21.594Z,3.45
2022-11-25T10:26:56.996Z,3.88
2022-11-25T10:29:25.024Z,3.45
2022-11-25T10:31:53.732Z,3.42
2022-11-25T10:34:40.437Z,3.80
2022-11-25T10:37:15.072Z,3.90
2022-11-25T10:39:41.443Z,4.13
2022-11-25T10:42:14.134Z,3.45
2022-11-25T10:44:41.285Z,3.80
2022-11-25T10:47:14.876Z,3.53
2022-11-25T10:49:50.324Z,3.35
2022-11-25T10:52:20.572Z,4.15
2022-11-25T10:54:57.143Z,3.60
2022-11-25T10:57:27.055Z,3.78
2022-11-25T10:59:58.377Z,3.47
2022-11-25T11:02:27.131Z,3.88
2022-11-25T11:04:56.291Z,3.63
2022-11-25T11:07:23.134Z,4.15
2022-11-25T11:09:49.749Z,3.63
2022-11-25T11:12:23.438Z,3.63
2022-11-25T11:14:50.030Z,4.72
2022-11-25T11:17:30.613Z,4.18
2022-11-25T11:20:06.885Z,3.88
2022-11-25T11:22:34.181Z,4.22
2022-11-25T11:25:06.792Z,3.50
2022-11-25T11:27:37.850Z,4.10
2022-11-25T11:30:10.603Z,3.67
2022-11-25T11:32:40.032Z,4.00
2022-11-25T11:35:08.716Z,3.53
2022-11-25T11:37:35.105Z,4.25
2022-11-25T11:40:20.143Z,3.97
2022-11-25T11:42:52.665Z,4.35
2022-11-25T11:45:36.416Z,3.72
2022-11-25T11:48:05.861Z,4.70
2022-11-25T11:50:35.362Z,4.32
2022-11-25T11:53:07.765Z,3.92
2022-11-25T11:55:55.977Z,4.15
2022-11-25T11:58:33.385Z,3.65
2022-11-25T12:01:29.301Z,3.70
2022-11-25T12:04:10.983Z,3.75
2022-11-25T12:06:38.388Z,4.05
2022-11-25T12:09:09.581Z,3.88
2022-11-25T12:11:38.684Z,3.72
2022-11-25T12:14:23.305Z,4.40
2022-11-25T12:17:12.637Z,4.10
2022-11-25T12:19:41.694Z,3.55
2022-11-25T12:22:08.006Z,4.70
2022-11-25T12:24:40.404Z,4.05
2022-11-25T12:27:08.645Z,4.00
2022-11-25T12:29:53.088Z,3.67
2022-11-25T12:32:19.406Z,3.65
2022-11-25T12:34:51.285Z,4.63
2022-11-25T12:37:23.984Z,4.32
2022-11-25T12:39:57.194Z,3.40
2022-11-25T12:42:25.777Z,3.10
2022-11-25T12:45:21.188Z,3.80
2022-11-25T12:47:49.568Z,3.42
2022-11-25T12:50:26.898Z,5.05
2022-11-25T12:53:12.522Z,3.75
2022-11-25T12:55:40.657Z,4.03
2022-11-25T12:58:18.634Z,3.63
2022-11-25T13:00:57.310Z,3.67
2022-11-25T13:03:38.900Z,3.63
2022-11-25T13:06:20.614Z,3.42
2022-11-25T13:08:55.648Z,3.85
2022-11-25T13:11:31.102Z,3.60
2022-11-25T13:14:17.004Z,2.97
2022-11-25T13:16:45.957Z,3.67
2022-11-25T13:19:16.320Z,3.30
2022-11-25T13:21:59.357Z,3.47
2022-11-25T13:24:30.975Z,3.50
2022-11-25T13:26:57.544Z,3.50
2022-11-25T13:29:44.243Z,3.22
2022-11-25T13:32:27.400Z,3.10
2022-11-25T13:35:12.638Z,2.97
2022-11-25T13:37:40.725Z,3.22
2022-11-25T13:40:20.073Z,3.33
2022-11-25T13:42:46.437Z,3.47
2022-11-25T13:45:33.084Z,3.40
2022-11-25T13:48:06.363Z,3.35
2022-11-25T13:50:55.498Z,3.55
2022-11-25T13:53:30.562Z,3.33
2022-11-25T13:56:16.020Z,3.35
2022-11-25T13:59:02.300Z,3.85
2022-11-25T14:01:30.566Z,3.30
2022-11-25T14:03:57.531Z,3.58
2022-11-25T14:06:31.558Z,3.90
2022-11-25T14:09:16.806Z,3.65
2022-11-25T14:11:52.262Z,3.35
2022-11-25T14:14:37.482Z,3.55
2022-11-25T14:17:39.571Z,4.38
2022-11-25T14:20:13.988Z,3.80
2022-11-25T14:23:00.191Z,3.97
2022-11-25T14:25:30.173Z,3.80
2022-11-25T14:28:09.018Z,4.23
2022-11-25T14:30:43.021Z,3.78
2022-11-25T14:33:12.572Z,4.05
2022-11-25T14:35:45.725Z,4.25
2022-11-25T14:38:15.002Z,4.72
2022-11-25T14:40:53.086Z,4.50
2022-11-25T14:43:22.053Z,3.72
2022-11-25T14:45:48.685Z,4.07
2022-11-25T14:48:26.064Z,4.03
2022-11-25T14:50:59.566Z,4.07
2022-11-25T14:53:27.080Z,4.25
2022-11-25T14:55:54.920Z,3.70
2022-11-25T14:58:21.541Z,3.33
2022-11-25T15:00:59.379Z,3.15
2022-11-25T15:03:25.864Z,3.83
2022-11-25T15:05:57.250Z,3.10
2022-11-25T15:08:24.552Z,3.33
2022-11-25T15:10:58.886Z,3.38
2022-11-25T15:13:42.248Z,3.97
2022-11-25T15:16:19.698Z,3.53
2022-11-25T15:18:54.024Z,3.50
2022-11-25T15:21:21.860Z,3.47
2022-11-25T15:23:48.655Z,3.70
2022-11-25T15:26:19.753Z,3.40
2022-11-25T15:28:46.220Z,3.47
2022-11-25T15:31:17.479Z,4.18
2022-11-25T15:33:44.258Z,3.55
2022-11-25T15:36:10.650Z,4.07
2022-11-25T15:38:41.596Z,3.58
2022-11-25T15:43:41.962Z,4.05
2022-11-25T15:46:08.983Z,4.10
2022-11-25T15:48:38.517Z,3.97
2022-11-25T15:51:06.651Z,3.60
2022-11-25T15:53:37.054Z,3.40
2022-11-25T15:56:04.384Z,3.25
2022-11-25T15:58:30.851Z,3.60
2022-11-25T16:01:01.685Z,3.50
2022-11-25T16:05:57.143Z,2.95
2022-11-25T16:08:29.487Z,3.70
2022-11-25T16:10:57.026Z,3.20
2022-11-25T16:13:23.560Z,3.45
2022-11-25T16:15:52.761Z,3.83
2022-11-25T16:18:41.933Z,3.55
2022-11-25T16:21:11.581Z,3.40
2022-11-25T16:23:40.603Z,3.33
2022-11-25T16:26:13.244Z,3.55
2022-11-25T16:28:40.851Z,3.38
2022-11-25T16:31:10.441Z,3.72
2022-11-25T16:33:36.961Z,3.90
2022-11-25T16:36:08.240Z,4.03
2022-11-25T16:38:35.908Z,3.53
2022-11-25T16:41:09.533Z,3.72
2022-11-25T16:43:39.269Z,3.58
2022-11-25T16:46:06.230Z,3.70
2022-11-25T16:48:32.607Z,3.28
2022-11-25T16:50:59.009Z,2.70
2022-11-25T16:53:25.413Z,4.07
2022-11-25T16:55:51.752Z,3.53
2022-11-25T16:58:19.503Z,3.15
2022-11-25T17:00:49.862Z,3.80
2022-11-25T17:03:16.271Z,3.67
2022-11-25T17:05:42.676Z,4.13
2022-11-25T17:08:09.093Z,4.05
2022-11-25T17:10:35.601Z,4.03
2022-11-25T17:13:02.796Z,3.40
2022-11-25T17:15:35.851Z,3.45
2022-11-25T17:18:03.239Z,3.95
2022-11-25T17:20:29.584Z,4.40
2022-11-25T17:22:55.920Z,3.53
2022-11-25T17:25:23.397Z,4.03
2022-11-25T17:27:49.775Z,3.75
2022-11-25T17:30:18.138Z,3.05
2022-11-25T17:32:44.952Z,3.40
2022-11-25T17:35:19.023Z,3.72
2022-11-25T17:37:45.799Z,3.22
2022-11-25T17:40:12.623Z,4.13
2022-11-25T17:42:39.467Z,3.63
2022-11-25T17:45:15.802Z,3.65
2022-11-25T17:47:42.320Z,3.38
2022-11-25T17:50:19.827Z,3.67
2022-11-25T17:52:46.492Z,3.33
2022-11-25T17:55:13.000Z,4.50
2022-11-25T17:57:39.406Z,3.13
2022-11-25T18:00:10.322Z,3.58
2022-11-25T18:05:10.126Z,3.13
2022-11-25T18:07:36.580Z,3.63
2022-11-25T18:10:03.212Z,2.50
2022-11-25T18:12:30.735Z,2.67
2022-11-25T18:14:57.306Z,2.90
2022-11-25T18:17:23.640Z,3.17
2022-11-25T18:19:54.905Z,3.03
2022-11-25T18:22:23.565Z,3.30
2022-11-25T18:24:50.240Z,3.50
2022-11-25T18:27:27.522Z,2.70
2022-11-25T18:29:54.464Z,2.88
2022-11-25T18:32:21.258Z,3.08
2022-11-25T18:34:48.869Z,3.25
2022-11-25T18:37:15.409Z,3.22
2022-11-25T18:39:42.161Z,2.45
2022-11-25T18:42:14.458Z,2.85
2022-11-25T18:44:43.727Z,2.85
2022-11-25T18:47:13.181Z,4.57
2022-11-25T18:49:39.769Z,3.28
2022-11-25T18:52:06.087Z,2.80
2022-11-25T18:54:32.491Z,2.90
2022-11-25T18:57:01.141Z,2.60
2022-11-25T18:59:29.768Z,3.03
2022-11-25T19:01:56.344Z,2.70
2022-11-25T19:04:22.748Z,2.75
2022-11-25T19:06:49.078Z,2.70
2022-11-25T19:09:15.445Z,3.03
2022-11-25T19:11:43.536Z,3.38
2022-11-25T19:14:30.282Z,2.67
2022-11-25T19:16:59.054Z,2.70
2022-11-25T19:19:25.583Z,2.85
2022-11-25T19:21:51.985Z,2.72
2022-11-25T19:24:18.331Z,2.55
2022-11-25T19:26:48.926Z,2.72
2022-11-25T19:29:19.681Z,3.00
2022-11-25T19:31:46.525Z,2.60
2022-11-25T19:34:24.697Z,3.05
2022-11-25T19:36:51.100Z,3.40
2022-11-25T19:39:18.632Z,3.10
2022-11-25T19:41:45.001Z,2.88
2022-11-25T19:44:11.448Z,2.63
2022-11-25T19:47:07.124Z,2.55
2022-11-25T19:49:26.629Z,3.28
2022-11-25T19:51:55.169Z,3.03
2022-11-25T19:54:21.516Z,3.05
2022-11-25T19:56:49.161Z,2.80
2022-11-25T19:59:15.535Z,2.88
2022-11-25T20:01:43.543Z,3.20
2022-11-25T20:04:13.343Z,2.55
2022-11-25T20:06:39.680Z,3.00
2022-11-25T20:09:11.387Z,3.05
2022-11-25T20:11:37.792Z,3.03
2022-11-25T20:14:04.449Z,3.17
2022-11-25T20:16:38.557Z,2.78
2022-11-25T20:19:08.981Z,3.05
2022-11-25T20:21:39.888Z,3.55
2022-11-25T20:26:36.449Z,2.83
2022-11-25T20:29:03.366Z,3.00
2022-11-25T20:31:31.651Z,3.45
2022-11-25T20:33:58.123Z,3.58
2022-11-25T20:36:28.870Z,3.88
2022-11-25T20:38:56.064Z,3.42
2022-11-25T20:41:27.480Z,3.28
2022-11-25T20:43:54.904Z,3.83
2022-11-25T20:46:26.252Z,3.53
2022-11-25T20:48:57.523Z,3.65
2022-11-25T20:51:24.130Z,3.30
2022-11-25T20:53:51.989Z,3.03
2022-11-25T20:56:19.343Z,3.60
2022-11-25T20:58:46.436Z,3.72
2022-11-25T21:01:14.636Z,3.75
2022-11-25T21:03:42.083Z,3.38
2022-11-25T21:06:16.629Z,3.58
2022-11-25T21:08:45.479Z,3.45
2022-11-25T21:11:11.802Z,3.50
2022-11-25T21:13:38.138Z,3.53
2022-11-25T21:16:04.755Z,3.20
2022-11-25T21:18:31.125Z,3.33
2022-11-25T21:20:58.214Z,3.58
2022-11-25T21:23:28.429Z,3.88
2022-11-25T21:25:57.229Z,3.85
2022-11-25T21:28:26.366Z,3.58
2022-11-25T21:30:52.818Z,3.83
2022-11-25T21:33:19.159Z,3.45
2022-11-25T21:35:46.593Z,3.10
2022-11-25T21:38:24.042Z,3.38
2022-11-25T21:40:52.373Z,3.15
2022-11-25T21:43:28.370Z,3.38
2022-11-25T21:46:02.044Z,3.40
2022-11-25T21:48:29.689Z,3.50
2022-11-25T21:50:56.422Z,3.45
2022-11-25T21:53:22.789Z,3.30
2022-11-25T21:55:49.343Z,3.35
2022-11-25T21:58:20.539Z,3.63
2022-11-25T22:00:53.248Z,3.08
2022-11-25T22:03:20.473Z,3.53
2022-11-25T22:05:47.631Z,3.08
2022-11-25T22:08:14.277Z,3.40
2022-11-25T22:10:42.129Z,3.17
2022-11-25T22:13:12.225Z,3.00
2022-11-25T22:15:38.590Z,3.72
2022-11-25T22:18:11.939Z,3.42
2022-11-25T22:20:38.550Z,3.97
2022-11-25T22:23:11.183Z,3.67
2022-11-25T22:25:37.606Z,3.80
2022-11-25T22:28:06.327Z,3.35
2022-11-25T22:30:32.727Z,2.97
2022-11-25T22:33:00.915Z,3.60
2022-11-25T22:35:27.840Z,3.33
2022-11-25T22:37:55.570Z,3.25
2022-11-25T22:40:22.687Z,3.63
2022-11-25T22:42:50.160Z,2.97
2022-11-25T22:45:33.192Z,2.92
2022-11-25T22:48:00.604Z,3.25
2022-11-25T22:50:28.064Z,3.38
2022-11-25T22:52:55.628Z,3.05
2022-11-25T22:55:26.268Z,2.80
2022-11-25T22:57:53.662Z,3.45
2022-11-25T23:00:21.790Z,3.85
2022-11-25T23:02:49.721Z,2.83
2022-11-25T23:05:20.460Z,2.75
2022-11-25T23:07:46.873Z,2.92
2022-11-25T23:10:15.211Z,2.95
2022-11-25T23:12:41.710Z,2.78
2022-11-25T23:15:12.072Z,2.85
2022-11-25T23:17:38.467Z,2.78
2022-11-25T23:20:14.006Z,3.00
2022-11-25T23:22:40.359Z,3.03
2022-11-25T23:25:12.607Z,2.80
2022-11-25T23:27:38.982Z,2.47
2022-11-25T23:30:06.639Z,2.53
2022-11-25T23:32:37.007Z,2.67
2022-11-25T23:35:03.486Z,2.83
2022-11-25T23:37:29.895Z,2.50
2022-11-25T23:39:56.302Z,3.08
2022-11-25T23:42:22.661Z,2.38
2022-11-25T23:44:49.032Z,2.50
2022-11-25T23:47:20.223Z,2.75
2022-11-25T23:49:48.704Z,2.92
2022-11-25T23:52:18.678Z,2.78
2022-11-25T23:54:45.840Z,2.97
2022-11-25T23:57:16.553Z,2.40
2022-11-25T23:59:43.069Z,2.83
